Latest Coastal Weather Observations for Portland Harbour

IDS60701

Issued at 7:15 pm CST Thursday 18 September 2014 (issued every 10 minutes, with the page automatically refreshed every 10 minutes)

About coastal observations | Map of coastal stations | Coastal observations for SA | Marine services | Other Formats
Station Details ID: 090192 Name: PORTLAND NTC AWS Lat: -38.34 Lon: 141.61 Height: 0.0 m
Data from the previous 72 hours. | See also: Recent months for locations in South Australia
Date/Time
CST
Temp

°C
Wind Pressure Rain
since 9am
mm
Weather Cloud Vis
km
Sea
Height
m
Swell
Dir
 
Speed
knots
Gust
knots
hPa Trend Height
m
Period
s
Dir
18/07:00pm 11.8 S 5 6 1025.6 - - - - - - - - -
18/06:30pm 11.9 S 7 10 1025.3 - - - - - - - - -
18/06:00pm 12.0 S 8 10 1025.3 - - - - - - - - -
18/05:30pm 12.3 S 10 14 1025.3 - - - - - - - - -
18/05:00pm 12.5 S 9 12 1025.1 - - - - - - - - -
18/04:30pm 12.4 S 8 11 1024.9 - - - - - - - - -
18/04:00pm 12.6 S 11 16 1024.7 - - - - - - - - -
18/03:30pm 12.7 SSW 9 13 1024.6 - - - - - - - - -
18/03:00pm 12.7 SSW 11 15 1024.6 - - - - - - - - -
18/02:30pm 13.0 SSW 11 15 1024.6 - - - - - - - - -
18/02:00pm 13.2 S 12 16 1024.6 - - - - - - - - -
18/01:30pm 12.7 S 9 15 1024.5 - - - - - - - - -
18/01:00pm 12.6 S 10 15 1024.6 - - - - - - - - -
18/12:30pm 12.3 S 12 17 1024.7 - - - - - - - - -
18/12:00pm 12.4 SSW 15 20 1025.0 - - - - - - - - -
18/11:30am 12.1 S 15 18 1024.7 - - - - - - - - -
18/11:00am 12.6 SSE 12 14 1024.7 - - - - - - - - -
18/10:30am 12.4 SSW 11 14 1024.8 - - - - - - - - -
18/10:00am 11.6 S 13 20 1025.0 - - - - - - - - -
18/09:30am 12.5 SSW 11 15 1024.7 - - - - - - - - -
18/09:00am 11.8 SSW 9 12 1024.7 - - - - - - - - -
18/08:30am 11.6 SW 9 14 1024.5 - - - - - - - - -
18/08:00am 11.5 SW 7 10 1024.2 - - - - - - - - -
18/07:30am 10.3 W 5 9 1023.9 - - - - - - - - -
18/07:00am 9.9 W 6 8 1023.6 - - - - - - - - -
18/06:30am 9.9 WSW 5 8 1023.4 - - - - - - - - -
18/06:00am 10.2 SW 8 13 1023.0 - - - - - - - - -
18/05:30am 10.1 SSW 8 12 1022.7 - - - - - - - - -
18/05:00am 10.2 SSW 9 14 1022.4 - - - - - - - - -
18/04:30am 10.0 SW 6 9 1022.1 - - - - - - - - -
18/04:00am 9.9 SSW 13 17 1022.1 - - - - - - - - -
18/03:30am 9.4 WSW 8 12 1021.9 - - - - - - - - -
18/03:00am 10.2 SSW 7 10 1021.8 - - - - - - - - -
18/02:30am 10.4 SSW 12 20 1021.7 - - - - - - - - -
18/02:00am 10.5 SSW 11 17 1021.6 - - - - - - - - -
18/01:30am 10.5 SW 8 20 1021.7 - - - - - - - - -
18/01:00am 9.8 S 7 10 1021.7 - - - - - - - - -
18/12:30am 10.4 SW 8 14 1021.9 - - - - - - - - -
18/12:00am 9.8 W 7 8 1021.8 - - - - - - - - -
 
Date/Time
CST
Temp

°C
Wind Pressure Rain
since 9am
mm
Weather Cloud Vis
km
Sea
Height
m
Swell
Dir
 
Speed
knots
Gust
knots
hPa Trend Height
m
Period
s
Dir
17/11:30pm 10.4 SW 10 17 1021.9 - - - - - - - - -
17/11:00pm 9.8 WSW 6 9 1021.9 - - - - - - - - -
17/10:30pm 10.4 WSW 10 18 1021.9 - - - - - - - - -
17/10:00pm 10.5 SW 13 18 1021.7 - - - - - - - - -
17/09:30pm 9.8 WSW 12 20 1021.6 - - - - - - - - -
17/09:00pm 10.7 SW 12 16 1021.6 - - - - - - - - -
17/08:30pm 9.8 WSW 8 11 1021.4 - - - - - - - - -
17/08:00pm 10.1 WSW 11 20 1021.1 - - - - - - - - -
17/07:30pm 9.3 SSW 15 22 1021.3 - - - - - - - - -
17/07:04pm 10.7 SW 15 26 1020.8 - - - - - - - - -
17/07:00pm 10.9 SW 11 16 1020.6 - - - - - - - - -
17/06:30pm 10.6 SW 11 18 1020.2 - - - - - - - - -
17/06:00pm 10.2 WSW 8 13 1020.0 - - - - - - - - -
17/05:30pm 10.0 SSW 14 19 1020.1 - - - - - - - - -
17/05:03pm 11.3 SW 15 28 1019.7 - - - - - - - - -
17/05:00pm 11.5 SW 14 19 1019.4 - - - - - - - - -
17/04:30pm 10.8 WSW 12 16 1019.1 - - - - - - - - -
17/04:12pm 11.4 SW 16 26 1018.9 - - - - - - - - -
17/04:00pm 11.5 WSW 14 19 1018.8 - - - - - - - - -
17/03:39pm 10.9 SW 15 25 1018.7 - - - - - - - - -
17/03:30pm 11.7 SW 17 22 1018.5 - - - - - - - - -
17/03:00pm 11.6 WSW 17 23 1018.4 - - - - - - - - -
17/02:36pm 11.9 SW 19 32 1018.2 - - - - - - - - -
17/02:30pm 11.8 SW 20 28 1018.2 - - - - - - - - -
17/02:10pm 11.9 SW 19 29 1017.8 - - - - - - - - -
17/02:00pm 11.5 SW 19 28 1018.0 - - - - - - - - -
17/01:30pm 12.6 SW 20 29 1017.5 - - - - - - - - -
17/01:22pm 12.4 SW 18 29 1017.6 - - - - - - - - -
17/01:00pm 12.9 SW 18 26 1017.2 - - - - - - - - -
17/12:31pm 11.9 SW 20 32 1017.3 - - - - - - - - -
17/12:30pm 12.0 SW 19 28 1017.3 - - - - - - - - -
17/12:00pm 11.6 WSW 19 26 1017.4 - - - - - - - - -
17/11:30am 10.8 SSW 22 28 1017.5 - - - - - - - - -
17/11:28am 10.8 SSW 22 27 1017.5 - - - - - - - - -
17/11:00am 11.5 WSW 17 28 1017.2 - - - - - - - - -
17/10:38am 12.1 SW 21 31 1017.0 - - - - - - - - -
17/10:30am 12.4 WSW 17 27 1017.0 - - - - - - - - -
17/10:04am 12.2 SW 19 31 1016.9 - - - - - - - - -
17/10:00am 12.4 WSW 18 27 1016.8 - - - - - - - - -
17/09:30am 12.1 WSW 16 24 1016.7 - - - - - - - - -
17/09:00am 12.1 WSW 18 27 1016.4 - - - - - - - - -
17/08:30am 11.9 SW 18 30 1016.2 - - - - - - - - -
17/08:22am 11.7 SW 17 30 1016.1 - - - - - - - - -
17/08:00am 11.5 SW 18 26 1015.9 - - - - - - - - -
17/07:30am 11.5 SW 16 28 1015.3 - - - - - - - - -
17/07:22am 11.7 SW 15 28 1015.2 - - - - - - - - -
17/07:00am 11.4 SW 14 21 1014.8 - - - - - - - - -
17/06:30am 11.4 WSW 16 28 1014.5 - - - - - - - - -
17/06:29am 11.4 WSW 15 28 1014.4 - - - - - - - - -
17/06:00am 11.2 SW 12 17 1014.2 - - - - - - - - -
17/05:30am 11.6 SW 13 18 1014.0 - - - - - - - - -
17/05:00am 11.4 WSW 10 14 1013.8 - - - - - - - - -
17/04:30am 11.3 SW 13 21 1013.8 - - - - - - - - -
17/04:00am 11.5 WSW 13 19 1013.6 - - - - - - - - -
17/03:30am 10.2 W 5 8 1013.3 - - - - - - - - -
17/03:00am 10.5 W 7 10 1013.3 - - - - - - - - -
17/02:30am 10.3 WSW 11 20 1013.6 - - - - - - - - -
17/02:00am 11.5 WSW 9 13 1013.3 - - - - - - - - -
17/01:30am 11.4 WSW 12 18 1013.4 - - - - - - - - -
17/01:00am 11.2 W 11 18 1013.5 - - - - - - - - -
17/12:30am 11.2 W 11 16 1013.6 - - - - - - - - -
17/12:00am 11.2 W 11 16 1013.6 - - - - - - - - -
 
Date/Time
CST
Temp

°C
Wind Pressure Rain
since 9am
mm
Weather Cloud Vis
km
Sea
Height
m
Swell
Dir
 
Speed
knots
Gust
knots
hPa Trend Height
m
Period
s
Dir
16/11:30pm 11.3 WSW 13 19 1013.6 - - - - - - - - -
16/11:00pm 11.2 WSW 15 22 1013.4 - - - - - - - - -
16/10:55pm 11.0 WSW 15 22 1013.4 - - - - - - - - -
16/10:30pm 10.3 WNW 4 7 1013.1 - - - - - - - - -
16/10:00pm 10.4 NNW 8 10 1013.2 - - - - - - - - -
16/09:30pm 10.8 NNW 7 10 1013.4 - - - - - - - - -
16/09:00pm 11.0 NW 4 5 1013.6 - - - - - - - - -
16/08:30pm 10.9 NW 9 13 1013.9 - - - - - - - - -
16/08:00pm 11.6 NW 4 5 1013.7 - - - - - - - - -
16/07:30pm 11.7 NW 4 5 1013.8 - - - - - - - - -
16/07:00pm 11.9 WNW 4 6 1013.7 - - - - - - - - -
16/06:30pm 12.4 W 4 6 1013.6 - - - - - - - - -
16/06:00pm 12.9 W 5 7 1013.4 - - - - - - - - -
16/05:30pm 13.3 WSW 8 12 1013.4 - - - - - - - - -
16/05:00pm 13.4 WSW 10 16 1013.2 - - - - - - - - -
16/04:30pm 13.6 WSW 11 16 1012.9 - - - - - - - - -
16/04:00pm 13.1 WSW 7 11 1012.9 - - - - - - - - -
16/03:30pm 13.4 WSW 11 16 1012.8 - - - - - - - - -
16/03:00pm 13.7 WSW 9 14 1012.8 - - - - - - - - -
16/02:30pm 12.7 W 8 10 1012.8 - - - - - - - - -
16/02:00pm 13.6 W 12 16 1012.9 - - - - - - - - -
16/01:30pm 14.6 W 12 17 1012.8 - - - - - - - - -
16/01:00pm 14.4 WSW 11 17 1012.9 - - - - - - - - -
16/12:30pm 13.8 WSW 12 16 1013.3 - - - - - - - - -
16/12:00pm 14.1 WSW 13 20 1013.5 - - - - - - - - -
16/11:30am 13.8 SW 12 17 1013.6 - - - - - - - - -
16/11:00am 13.4 WSW 12 17 1013.9 - - - - - - - - -
16/10:30am 13.6 SW 13 20 1014.0 - - - - - - - - -
16/10:00am 13.5 SSW 14 19 1014.2 - - - - - - - - -
16/09:30am 13.2 SSW 12 17 1014.2 - - - - - - - - -
16/09:00am 13.1 SW 12 15 1014.1 - - - - - - - - -
16/08:30am 13.0 SW 13 17 1014.1 - - - - - - - - -
16/08:00am 12.8 SW 12 18 1013.9 - - - - - - - - -
16/07:30am 12.5 SW 9 14 1013.9 - - - - - - - - -
16/07:00am 12.6 SSW 11 14 1013.6 - - - - - - - - -
16/06:30am 12.2 SSW 10 14 1013.4 - - - - - - - - -
16/06:00am 12.5 SSW 11 17 1013.2 - - - - - - - - -
16/05:30am 12.5 SSW 11 15 1012.8 - - - - - - - - -
16/05:00am 12.4 SSW 13 19 1012.7 - - - - - - - - -
16/04:30am 12.3 SSW 11 15 1012.4 - - - - - - - - -
16/04:00am 12.5 SSW 11 16 1012.2 - - - - - - - - -
16/03:30am 12.4 SSW 12 17 1011.9 - - - - - - - - -
16/03:00am 12.3 SSW 12 16 1011.7 - - - - - - - - -
16/02:30am 12.5 SSW 15 21 1011.8 - - - - - - - - -
16/02:00am 12.7 SSW 15 20 1011.9 - - - - - - - - -
16/01:30am 12.7 SSW 14 21 1012.0 - - - - - - - - -
16/01:00am 13.1 S 11 15 1012.1 - - - - - - - - -
16/12:30am 13.2 S 11 16 1012.2 - - - - - - - - -
16/12:00am 13.2 S 13 18 1012.3 - - - - - - - - -
 
Date/Time
CST
Temp

°C
Wind Pressure Rain
since 9am
mm
Weather Cloud Vis
km
Sea
Height
m
Swell
Dir
 
Speed
knots
Gust
knots
hPa Trend Height
m
Period
s
Dir
15/11:30pm 13.2 S 12 17 1012.1 - - - - - - - - -
15/11:00pm 13.1 S 12 17 1012.3 - - - - - - - - -
15/10:30pm 13.2 S 12 18 1012.3 - - - - - - - - -
15/10:00pm 13.3 S 11 16 1012.4 - - - - - - - - -
15/09:30pm 13.2 S 12 17 1012.5 - - - - - - - - -
15/09:00pm 13.2 SSE 14 18 1012.4 - - - - - - - - -
15/08:30pm 13.1 SSE 14 19 1012.0 - - - - - - - - -
15/08:00pm 13.1 SSE 16 20 1012.1 - - - - - - - - -
15/07:30pm 13.1 SSE 15 20 1012.1 - - - - - - - - -
15/07:00pm 13.0 SSE 17 22 1012.1 - - - - - - - - -

Other Formats:

Comma delimited format used in spreadsheet applications
http://www.bom.gov.au/fwo/IDS60701/IDS60701.95826.axf

JavaScript Object Notation format (JSON) in row-major order
http://www.bom.gov.au/fwo/IDS60701/IDS60701.95826.json